Time;durP1;ratioP1;P1;durP2;ratioP2;P2;SDS_P1;SDS_P2;PMS_P1;PMS_P2;Temp;Humidity;BMP_temperature;BMP_pressure;BME280_temperature;BME280_humidity;BME280_pressure;Samples;Min_cycle;Max_cycle;Signal;HPM_P1;HPM_P2
2022/03/21 00:00:51;;;;;;;19.33;14.70;;;8.50;65.50;;;;;;5016403;28;20466;-45
2022/03/21 00:03:19;;;;;;;21.80;17.03;;;8.50;65.70;;;;;;5032186;28;20491;-45
2022/03/21 00:05:47;;;;;;;22.53;16.83;;;8.50;65.70;;;;;;5020374;28;20539;-45
2022/03/21 00:08:17;;;;;;;21.63;16.60;;;8.40;65.90;;;;;;5016237;28;20452;-45
2022/03/21 00:10:45;;;;;;;28.10;18.23;;;8.40;65.80;;;;;;5015487;28;20456;-45
2022/03/21 00:13:15;;;;;;;22.17;15.83;;;8.30;65.90;;;;;;5009961;28;20927;-45
2022/03/21 00:15:47;;;;;;;20.53;15.97;;;8.30;66.10;;;;;;5019361;28;20486;-45
2022/03/21 00:18:15;;;;;;;23.67;16.30;;;8.20;66.40;;;;;;5013957;28;20491;-45
2022/03/21 00:20:47;;;;;;;25.20;16.47;;;8.20;66.50;;;;;;5016158;28;20473;-45
2022/03/21 00:23:14;;;;;;;23.47;18.03;;;8.10;66.60;;;;;;5020147;28;20487;-45
2022/03/21 00:25:41;;;;;;;20.30;16.07;;;8.10;66.50;;;;;;5020334;28;20459;-45
2022/03/21 00:28:09;;;;;;;24.20;14.47;;;8.10;66.20;;;;;;5013160;28;20460;-45
2022/03/21 00:30:39;;;;;;;20.07;15.53;;;8.00;66.20;;;;;;5020945;28;21003;-45
2022/03/21 00:33:07;;;;;;;24.07;15.53;;;8.00;66.30;;;;;;5018589;28;20455;-45
2022/03/21 00:35:35;;;;;;;24.90;16.30;;;8.00;66.50;;;;;;5016334;28;20459;-45
2022/03/21 00:38:03;;;;;;;23.63;15.97;;;7.90;66.50;;;;;;5018788;28;20853;-45
2022/03/21 00:40:30;;;;;;;20.60;15.33;;;7.90;66.70;;;;;;5014953;28;20476;-45
2022/03/21 00:42:57;;;;;;;27.97;17.97;;;7.90;66.80;;;;;;5018127;28;20490;-46
2022/03/21 00:45:25;;;;;;;17.60;14.53;;;7.90;66.60;;;;;;5014253;28;20988;-46
2022/03/21 00:47:53;;;;;;;19.90;15.73;;;7.90;66.60;;;;;;5017783;28;20505;-45
2022/03/21 00:50:23;;;;;;;22.73;17.17;;;7.80;66.70;;;;;;5015525;28;20554;-45
2022/03/21 00:52:53;;;;;;;24.37;16.50;;;7.80;66.80;;;;;;5018128;28;20500;-45
2022/03/21 00:55:22;;;;;;;19.87;13.43;;;7.80;66.70;;;;;;5015153;28;20794;-45
2022/03/21 00:57:49;;;;;;;24.30;14.50;;;7.70;66.90;;;;;;5015039;28;20510;-45
2022/03/21 01:00:20;;;;;;;27.13;16.57;;;7.70;66.90;;;;;;5021376;28;20486;-45
2022/03/21 01:02:48;;;;;;;23.37;14.83;;;7.60;67.00;;;;;;5016814;28;20494;-45
2022/03/21 01:05:15;;;;;;;19.93;14.17;;;7.60;67.10;;;;;;5018636;28;21109;-45
2022/03/21 01:07:42;;;;;;;21.27;14.67;;;7.50;67.10;;;;;;5013508;28;21041;-45
2022/03/21 01:10:13;;;;;;;21.50;15.33;;;7.50;67.10;;;;;;5017995;28;21166;-45
2022/03/21 01:12:41;;;;;;;24.13;16.37;;;7.50;67.20;;;;;;5014922;28;21093;-45
2022/03/21 01:15:09;;;;;;;19.43;14.70;;;7.50;67.30;;;;;;5018491;28;20464;-45
2022/03/21 01:17:36;;;;;;;20.57;14.23;;;7.40;67.20;;;;;;5022197;28;20959;-45
2022/03/21 01:20:05;;;;;;;23.33;15.37;;;7.40;67.20;;;;;;5020840;28;20888;-45
2022/03/21 01:22:31;;;;;;;28.37;16.30;;;7.30;67.30;;;;;;5022031;28;21003;-45
2022/03/21 01:24:58;;;;;;;27.00;16.97;;;7.30;67.80;;;;;;5022511;28;20475;-45
2022/03/21 01:27:25;;;;;;;25.20;16.10;;;7.30;67.60;;;;;;5019565;28;20470;-45
2022/03/21 01:29:52;;;;;;;22.97;15.83;;;7.30;67.60;;;;;;5011738;28;20509;-45
2022/03/21 01:32:19;;;;;;;21.90;14.87;;;7.20;67.40;;;;;;5021837;28;20550;-45
2022/03/21 01:34:45;;;;;;;21.90;15.00;;;7.20;67.40;;;;;;5021784;28;20541;-45
2022/03/21 01:37:12;;;;;;;19.63;14.07;;;7.20;67.40;;;;;;5022881;28;20495;-45
2022/03/21 01:39:39;;;;;;;19.00;13.70;;;7.20;67.10;;;;;;5006526;28;20469;-45
2022/03/21 01:42:07;;;;;;;24.90;15.27;;;7.20;66.70;;;;;;5022474;28;20483;-45
2022/03/21 01:44:34;;;;;;;18.70;14.30;;;7.10;66.80;;;;;;5019534;28;20444;-45
2022/03/21 01:47:01;;;;;;;21.23;14.20;;;7.10;66.70;;;;;;5021319;28;20896;-45
2022/03/21 01:49:28;;;;;;;18.07;13.53;;;7.10;66.70;;;;;;5019827;28;20828;-45
2022/03/21 01:51:55;;;;;;;21.90;13.67;;;7.10;66.90;;;;;;5020271;28;20470;-45
2022/03/21 01:57:08;;;;;;;21.53;14.00;;;7.00;66.80;;;;;;5020830;28;20459;-45
2022/03/21 01:59:36;;;;;;;21.57;14.70;;;7.00;66.90;;;;;;5035035;28;20455;-45
2022/03/21 02:02:05;;;;;;;22.17;14.43;;;7.00;66.70;;;;;;5020344;28;20579;-45
2022/03/21 02:04:33;;;;;;;23.30;13.83;;;6.90;66.80;;;;;;5022054;28;20452;-45
2022/03/21 02:07:01;;;;;;;21.90;13.90;;;6.90;67.00;;;;;;5019786;28;20472;-45
2022/03/21 02:09:29;;;;;;;25.67;16.87;;;6.80;67.20;;;;;;5020466;28;20970;-45
2022/03/21 02:11:57;;;;;;;19.10;13.23;;;6.80;67.50;;;;;;5022505;28;20559;-45
2022/03/21 02:14:24;;;;;;;19.77;15.07;;;6.80;67.40;;;;;;5023986;28;20464;-45
2022/03/21 02:16:51;;;;;;;23.47;15.60;;;6.80;67.40;;;;;;5014765;28;22432;-45
2022/03/21 02:19:26;;;;;;;22.43;14.53;;;6.80;67.20;;;;;;5017456;28;20499;-45
2022/03/21 02:22:14;;;;;;;20.00;14.20;;;6.70;67.50;;;;;;5020725;28;20471;-45
2022/03/21 02:24:47;;;;;;;19.53;13.60;;;6.70;67.60;;;;;;5020529;28;20456;-45
2022/03/21 02:27:16;;;;;;;25.20;14.67;;;6.70;67.90;;;;;;5022636;28;20456;-45
2022/03/21 02:29:47;;;;;;;18.60;12.93;;;6.70;67.90;;;;;;5016984;28;20467;-45
2022/03/21 02:32:14;;;;;;;18.73;14.77;;;6.60;67.80;;;;;;5017669;28;20466;-45
2022/03/21 02:34:41;;;;;;;17.20;14.03;;;6.60;67.70;;;;;;5019581;28;21014;-45
2022/03/21 02:37:10;;;;;;;20.87;15.47;;;6.60;68.00;;;;;;5018346;28;20455;-45
2022/03/21 02:39:38;;;;;;;20.07;12.63;;;6.50;68.10;;;;;;5037512;28;20462;-45
2022/03/21 02:42:05;;;;;;;24.40;15.30;;;6.50;68.10;;;;;;5018818;28;20460;-45
2022/03/21 02:44:36;;;;;;;19.80;13.50;;;6.50;68.20;;;;;;5019064;28;21004;-45
2022/03/21 02:47:05;;;;;;;18.17;14.23;;;6.40;68.20;;;;;;5017198;28;20895;-45
2022/03/21 02:49:32;;;;;;;22.57;12.83;;;6.40;68.20;;;;;;5019133;28;20460;-45
2022/03/21 02:52:01;;;;;;;23.27;15.03;;;6.30;68.30;;;;;;5017713;28;20459;-45
2022/03/21 02:54:29;;;;;;;24.33;13.00;;;6.30;68.30;;;;;;5018140;28;20542;-45
2022/03/21 02:56:57;;;;;;;20.87;12.97;;;6.30;68.40;;;;;;5019084;28;20470;-45
2022/03/21 02:59:25;;;;;;;16.33;12.50;;;6.20;68.50;;;;;;5019306;28;20470;-45
2022/03/21 03:01:53;;;;;;;22.13;13.67;;;6.20;68.60;;;;;;5017803;28;20470;-45
2022/03/21 03:04:22;;;;;;;18.40;13.40;;;6.20;68.60;;;;;;5014332;28;20483;-45
2022/03/21 03:06:49;;;;;;;18.73;13.20;;;6.20;68.70;;;;;;5004484;28;20851;-45
2022/03/21 03:09:16;;;;;;;21.13;14.03;;;6.10;68.80;;;;;;5032904;28;20456;-45
2022/03/21 03:11:43;;;;;;;17.47;13.00;;;6.10;68.80;;;;;;5023004;28;20465;-45
2022/03/21 03:14:10;;;;;;;19.83;13.13;;;6.10;68.80;;;;;;5020400;28;20456;-47
2022/03/21 03:16:37;;;;;;;19.97;14.40;;;6.10;68.60;;;;;;5019234;28;20465;-47
2022/03/21 03:19:06;;;;;;;20.50;13.97;;;6.10;68.50;;;;;;5003830;28;20463;-45
2022/03/21 03:21:39;;;;;;;19.03;13.70;;;6.00;68.50;;;;;;5029575;28;20460;-43
2022/03/21 03:24:08;;;;;;;16.97;12.67;;;6.00;68.40;;;;;;5019558;28;20491;-43
2022/03/21 03:26:35;;;;;;;20.33;13.67;;;6.00;68.30;;;;;;5017275;28;20935;-43
2022/03/21 03:29:03;;;;;;;18.20;14.10;;;6.00;68.30;;;;;;5018156;28;20470;-43
2022/03/21 03:31:30;;;;;;;17.90;13.43;;;6.00;68.20;;;;;;5018613;28;20470;-43
2022/03/21 03:33:58;;;;;;;19.13;14.67;;;6.00;68.30;;;;;;5014903;28;20460;-43
2022/03/21 03:36:25;;;;;;;19.80;13.30;;;6.00;68.30;;;;;;5014237;28;20475;-43
2022/03/21 03:38:51;;;;;;;17.50;13.97;;;5.90;68.20;;;;;;5017415;28;20455;-43
2022/03/21 03:41:19;;;;;;;18.23;13.87;;;5.90;68.20;;;;;;5015152;28;20474;-43
2022/03/21 03:43:47;;;;;;;21.00;13.83;;;5.90;68.00;;;;;;5013338;28;21116;-43
2022/03/21 03:46:16;;;;;;;21.33;13.60;;;5.90;68.20;;;;;;5016831;28;20473;-43
2022/03/21 03:48:44;;;;;;;18.10;13.20;;;5.90;68.20;;;;;;4999636;28;20448;-43
2022/03/21 03:51:11;;;;;;;18.87;12.87;;;5.90;68.20;;;;;;5000062;28;20601;-43
2022/03/21 03:53:40;;;;;;;21.07;13.67;;;5.80;68.30;;;;;;5014967;28;20540;-43
2022/03/21 03:56:07;;;;;;;16.13;12.73;;;5.80;68.40;;;;;;5019276;28;20828;-43
2022/03/21 03:58:35;;;;;;;19.80;14.20;;;5.80;68.40;;;;;;5015635;28;20667;-43
2022/03/21 04:01:04;;;;;;;19.90;14.00;;;5.70;68.40;;;;;;5017853;28;20461;-43
2022/03/21 04:03:47;;;;;;;17.80;13.27;;;5.70;68.70;;;;;;5014749;28;20490;-43
2022/03/21 04:06:20;;;;;;;17.67;12.80;;;5.70;68.70;;;;;;5014844;28;20463;-43
2022/03/21 04:08:49;;;;;;;18.03;13.27;;;5.70;68.80;;;;;;5015404;28;20459;-43
2022/03/21 04:11:16;;;;;;;18.73;13.00;;;5.70;68.70;;;;;;5015104;28;20455;-43
2022/03/21 04:13:43;;;;;;;18.77;13.20;;;5.70;68.60;;;;;;4999398;28;20834;-43
2022/03/21 04:16:10;;;;;;;19.73;14.67;;;5.60;68.60;;;;;;5018975;28;20455;-43
2022/03/21 04:18:37;;;;;;;22.27;14.43;;;5.60;68.80;;;;;;5016714;28;20852;-43
2022/03/21 04:21:25;;;;;;;17.03;13.17;;;5.60;68.80;;;;;;5002362;28;20463;-43
2022/03/21 04:23:51;;;;;;;17.70;12.70;;;5.60;68.80;;;;;;5018471;28;20570;-43
2022/03/21 04:26:19;;;;;;;16.87;13.27;;;5.60;68.80;;;;;;5016518;28;20479;-43
2022/03/21 04:28:46;;;;;;;18.17;13.33;;;5.60;68.80;;;;;;5012935;28;20584;-43
2022/03/21 04:31:12;;;;;;;17.77;13.37;;;5.60;68.80;;;;;;4990131;28;20909;-43
2022/03/21 04:33:39;;;;;;;15.40;12.07;;;5.60;68.70;;;;;;5017307;28;20964;-43
2022/03/21 04:36:06;;;;;;;24.57;15.37;;;5.60;68.70;;;;;;5015896;28;20460;-43
2022/03/21 04:38:33;;;;;;;20.00;14.00;;;5.60;68.60;;;;;;5016155;28;20484;-43
2022/03/21 04:41:00;;;;;;;18.00;12.87;;;5.50;68.60;;;;;;4999745;28;20468;-43
2022/03/21 04:43:27;;;;;;;22.00;14.30;;;5.50;68.90;;;;;;5017536;28;20834;-43
2022/03/21 04:45:53;;;;;;;19.90;14.27;;;5.50;68.90;;;;;;5016475;28;20464;-44
2022/03/21 04:48:21;;;;;;;20.30;13.47;;;5.50;69.00;;;;;;5000428;28;20460;-43
2022/03/21 04:50:47;;;;;;;18.97;13.70;;;5.40;69.00;;;;;;5019221;28;20494;-43
2022/03/21 04:53:14;;;;;;;24.03;14.60;;;5.40;69.20;;;;;;5018276;28;20455;-43
2022/03/21 04:55:42;;;;;;;21.37;15.10;;;5.40;69.20;;;;;;5018724;28;20456;-43
2022/03/21 04:58:09;;;;;;;19.47;12.93;;;5.40;69.20;;;;;;5021362;28;20504;-43
2022/03/21 05:00:39;;;;;;;20.00;13.93;;;5.40;69.30;;;;;;5024234;28;20546;-43
2022/03/21 05:03:09;;;;;;;18.17;13.27;;;5.40;69.70;;;;;;5032235;28;20498;-43
2022/03/21 05:05:42;;;;;;;18.73;13.20;;;5.40;69.50;;;;;;5019451;28;20466;-43
2022/03/21 05:08:10;;;;;;;19.50;13.83;;;5.30;69.60;;;;;;5019721;28;22467;-43
2022/03/21 05:10:37;;;;;;;21.03;13.50;;;5.30;69.60;;;;;;5017692;28;20463;-43
2022/03/21 05:13:04;;;;;;;21.23;13.43;;;5.20;69.60;;;;;;5021128;28;20463;-43
2022/03/21 05:15:31;;;;;;;20.87;14.30;;;5.20;69.80;;;;;;5000551;28;20991;-43
2022/03/21 05:17:59;;;;;;;19.60;13.50;;;5.20;69.80;;;;;;5021014;28;20447;-43
2022/03/21 05:20:27;;;;;;;25.43;15.57;;;5.20;69.90;;;;;;5022038;28;20463;-43
2022/03/21 05:31:12;;;;;;;19.67;12.20;;;5.10;70.20;;;;;;5020303;28;20451;-43
2022/03/21 05:36:27;;;;;;;18.30;12.50;;;5.10;70.50;;;;;;5020939;28;20871;-43
2022/03/21 05:38:56;;;;;;;20.90;13.10;;;5.10;70.60;;;;;;5021185;28;20460;-43
2022/03/21 05:41:26;;;;;;;20.67;13.30;;;5.10;70.50;;;;;;5003163;28;20492;-43
2022/03/21 05:43:52;;;;;;;17.30;12.90;;;5.10;70.50;;;;;;5019632;28;20487;-43
2022/03/21 05:46:20;;;;;;;16.23;13.43;;;5.10;70.30;;;;;;5019249;28;20486;-43
2022/03/21 05:48:50;;;;;;;16.97;13.00;;;5.10;70.30;;;;;;5021533;28;20467;-43
2022/03/21 05:51:20;;;;;;;18.73;12.90;;;5.10;70.30;;;;;;5020851;28;20464;-43
2022/03/21 05:53:49;;;;;;;22.20;12.90;;;5.10;70.30;;;;;;5021458;28;21039;-43
2022/03/21 05:56:16;;;;;;;17.40;13.40;;;5.10;70.30;;;;;;5022042;28;20575;-43
2022/03/21 05:58:43;;;;;;;23.57;14.63;;;5.10;70.30;;;;;;5019984;28;20448;-43
2022/03/21 06:01:11;;;;;;;20.33;15.03;;;5.10;70.20;;;;;;5019739;28;20837;-43
2022/03/21 06:03:40;;;;;;;26.10;14.20;;;5.10;70.30;;;;;;5015168;28;20565;-43
2022/03/21 06:06:08;;;;;;;17.30;12.93;;;5.10;70.30;;;;;;5018706;28;20463;-43
2022/03/21 06:08:34;;;;;;;19.13;14.00;;;5.10;70.30;;;;;;5007505;28;20460;-43
2022/03/21 06:11:04;;;;;;;25.40;14.50;;;5.10;70.50;;;;;;5013262;28;20478;-43
2022/03/21 06:13:38;;;;;;;20.10;14.43;;;5.10;70.60;;;;;;5012203;28;20852;-43
2022/03/21 06:16:06;;;;;;;19.60;13.80;;;5.20;70.70;;;;;;5017201;28;20974;-43
2022/03/21 06:18:35;;;;;;;22.30;14.93;;;5.10;70.90;;;;;;5008789;28;20946;-43
2022/03/21 06:21:04;;;;;;;21.90;15.30;;;5.20;70.90;;;;;;5012442;28;20506;-43
2022/03/21 06:23:31;;;;;;;20.30;14.53;;;5.20;71.10;;;;;;5004653;28;20488;-43
2022/03/21 06:25:58;;;;;;;17.10;13.90;;;5.30;71.10;;;;;;5020620;28;20819;-43
2022/03/21 06:28:27;;;;;;;19.57;12.50;;;5.30;71.00;;;;;;5017534;28;20952;-43
2022/03/21 06:30:54;;;;;;;20.20;15.07;;;5.40;71.00;;;;;;5018143;28;20546;-43
2022/03/21 06:33:26;;;;;;;19.73;13.93;;;5.40;70.90;;;;;;5003003;28;20960;-43
2022/03/21 06:35:55;;;;;;;22.20;14.40;;;5.40;70.90;;;;;;5017886;28;20844;-43
2022/03/21 06:38:22;;;;;;;18.60;12.27;;;5.50;70.70;;;;;;5003464;28;20909;-43
2022/03/21 06:40:49;;;;;;;18.17;12.80;;;5.60;70.60;;;;;;5001649;28;20459;-43
2022/03/21 06:43:17;;;;;;;16.10;13.07;;;5.60;70.20;;;;;;5005615;28;20458;-43
2022/03/21 06:45:44;;;;;;;19.43;13.70;;;5.70;70.10;;;;;;5019938;28;20484;-43
2022/03/21 06:48:11;;;;;;;18.70;13.90;;;5.70;70.20;;;;;;5010992;28;20470;-43
2022/03/21 06:50:37;;;;;;;17.53;13.73;;;5.80;70.40;;;;;;5017781;28;20546;-43
2022/03/21 06:53:04;;;;;;;20.20;14.40;;;5.80;70.70;;;;;;5018898;28;20470;-43
2022/03/21 06:55:31;;;;;;;18.17;12.53;;;5.80;70.80;;;;;;5021291;28;20467;-43
2022/03/21 06:58:01;;;;;;;19.83;14.67;;;5.90;70.90;;;;;;5003007;28;20905;-43
2022/03/21 07:00:27;;;;;;;18.73;13.10;;;6.00;70.90;;;;;;5018888;28;20586;-43
2022/03/21 07:02:54;;;;;;;17.27;13.87;;;6.00;71.00;;;;;;5021782;28;20538;-43
2022/03/21 07:05:21;;;;;;;19.50;14.70;;;6.10;71.10;;;;;;5016223;28;20546;-43
2022/03/21 07:07:50;;;;;;;25.43;15.10;;;6.30;71.00;;;;;;5016896;28;20559;-43
2022/03/21 07:10:17;;;;;;;19.53;14.73;;;6.40;70.40;;;;;;5014742;28;20786;-43
2022/03/21 07:12:43;;;;;;;22.83;15.77;;;6.50;70.20;;;;;;5019595;28;20973;-43
2022/03/21 07:15:10;;;;;;;24.00;17.30;;;6.50;70.00;;;;;;5017472;28;20490;-43
2022/03/21 07:17:37;;;;;;;22.33;15.73;;;6.60;69.90;;;;;;5018977;28;20474;-43
2022/03/21 07:20:04;;;;;;;22.23;15.87;;;6.70;69.20;;;;;;5019260;28;20660;-43
2022/03/21 07:22:31;;;;;;;20.70;13.70;;;6.80;67.50;;;;;;5020421;28;21024;-43
2022/03/21 07:24:58;;;;;;;17.33;13.77;;;6.90;65.80;;;;;;4988281;28;21009;-43
2022/03/21 07:27:24;;;;;;;21.30;14.30;;;7.10;65.60;;;;;;5005691;28;20972;-43
2022/03/21 07:29:51;;;;;;;17.13;14.77;;;7.20;65.80;;;;;;5016276;28;20452;-44
2022/03/21 07:32:18;;;;;;;21.23;12.90;;;7.30;65.40;;;;;;5018316;28;20464;-44
2022/03/21 07:34:45;;;;;;;17.00;13.00;;;7.40;63.10;;;;;;5015654;28;20487;-44
2022/03/21 07:37:11;;;;;;;15.47;12.47;;;7.50;59.60;;;;;;5016768;28;20482;-43
2022/03/21 07:39:39;;;;;;;19.33;12.60;;;7.60;58.90;;;;;;5014801;28;20902;-43
2022/03/21 07:42:07;;;;;;;19.50;12.33;;;7.70;58.70;;;;;;5014204;28;20471;-43
2022/03/21 07:47:20;;;;;;;16.87;15.07;;;8.00;57.80;;;;;;5018693;28;20509;-44
2022/03/21 07:49:52;;;;;;;17.10;12.47;;;8.20;56.80;;;;;;5020337;28;20902;-44
2022/03/21 07:52:20;;;;;;;17.03;13.13;;;8.30;56.70;;;;;;5009423;28;20459;-44
2022/03/21 07:54:53;;;;;;;16.27;12.17;;;8.50;54.80;;;;;;5015211;28;20515;-44
2022/03/21 07:57:23;;;;;;;18.13;12.60;;;8.60;54.20;;;;;;5018621;28;20986;-44
2022/03/21 07:59:53;;;;;;;15.23;11.90;;;8.70;53.80;;;;;;5031196;28;20455;-44
2022/03/21 08:02:21;;;;;;;13.87;12.13;;;8.90;52.70;;;;;;5014404;28;20980;-43
2022/03/21 08:04:50;;;;;;;17.50;11.70;;;9.00;51.30;;;;;;5018237;28;20999;-43
2022/03/21 08:07:24;;;;;;;13.77;10.93;;;9.20;51.10;;;;;;5014063;28;20463;-43
2022/03/21 08:09:50;;;;;;;16.50;11.70;;;9.40;51.00;;;;;;5019860;28;20971;-44
2022/03/21 08:12:17;;;;;;;16.90;11.70;;;9.50;50.80;;;;;;5015014;28;20464;-44
2022/03/21 08:14:44;;;;;;;19.80;13.80;;;9.60;50.70;;;;;;5029989;28;20466;-44
2022/03/21 08:17:11;;;;;;;15.97;12.73;;;9.80;51.30;;;;;;5016017;28;20455;-44
2022/03/21 08:19:38;;;;;;;16.77;12.90;;;9.90;50.70;;;;;;5015404;28;21015;-43
2022/03/21 08:22:05;;;;;;;15.80;12.30;;;10.00;50.50;;;;;;5006920;28;20547;-43
2022/03/21 08:24:35;;;;;;;19.37;12.53;;;10.20;50.40;;;;;;5023012;28;20571;-43
2022/03/21 08:27:04;;;;;;;15.33;12.53;;;10.30;50.10;;;;;;5019852;28;20456;-43
2022/03/21 08:29:32;;;;;;;20.07;13.23;;;10.40;49.70;;;;;;5019094;28;21096;-43
2022/03/21 08:31:59;;;;;;;18.93;14.17;;;10.50;48.90;;;;;;5020719;28;20850;-44
2022/03/21 08:34:26;;;;;;;21.57;15.30;;;10.60;48.80;;;;;;5020123;28;20663;-44
2022/03/21 08:36:53;;;;;;;19.53;15.40;;;10.80;48.80;;;;;;5034720;28;20498;-44
2022/03/21 08:39:19;;;;;;;19.43;14.67;;;10.90;48.90;;;;;;5018599;28;20466;-44
2022/03/21 08:41:46;;;;;;;22.33;13.97;;;11.00;48.60;;;;;;5020180;28;20551;-44
2022/03/21 08:44:13;;;;;;;16.67;13.00;;;11.10;48.10;;;;;;5008694;28;20491;-44
2022/03/21 08:46:40;;;;;;;16.17;12.87;;;11.30;47.70;;;;;;5022768;28;20851;-45
2022/03/21 08:49:26;;;;;;;16.93;13.23;;;11.50;47.30;;;;;;5020935;28;20535;-44
2022/03/21 08:51:58;;;;;;;18.37;13.47;;;11.70;47.10;;;;;;5020315;28;20609;-44
2022/03/21 08:54:26;;;;;;;18.33;14.20;;;11.80;46.80;;;;;;5018322;28;20574;-44
2022/03/21 08:56:52;;;;;;;19.17;13.70;;;12.00;46.40;;;;;;5003650;28;20469;-44
2022/03/21 08:59:19;;;;;;;16.90;13.07;;;12.20;45.80;;;;;;5018656;28;20458;-44
2022/03/21 09:01:46;;;;;;;15.83;13.70;;;12.30;45.80;;;;;;5021114;28;20460;-44
2022/03/21 09:04:13;;;;;;;17.27;13.97;;;12.50;45.60;;;;;;5017859;28;20568;-44
2022/03/21 09:06:40;;;;;;;17.23;13.50;;;12.70;45.00;;;;;;5002484;28;20494;-45
2022/03/21 09:09:08;;;;;;;20.30;13.40;;;12.90;44.70;;;;;;5017414;28;20918;-44
2022/03/21 09:11:35;;;;;;;18.23;13.33;;;13.10;44.70;;;;;;5016968;28;20590;-45
2022/03/21 09:14:02;;;;;;;18.70;13.60;;;13.20;44.70;;;;;;5019137;28;20452;-44
2022/03/21 09:16:29;;;;;;;21.57;13.37;;;13.40;44.30;;;;;;5002078;28;20904;-43
2022/03/21 09:18:56;;;;;;;15.07;12.60;;;13.50;44.90;;;;;;5021274;28;20460;-43
2022/03/21 09:21:23;;;;;;;18.73;14.70;;;13.70;44.90;;;;;;5020541;28;20487;-43
2022/03/21 09:23:50;;;;;;;17.37;13.53;;;13.80;44.80;;;;;;4999509;28;20929;-43
2022/03/21 09:26:17;;;;;;;19.13;13.47;;;13.90;44.40;;;;;;5020098;28;20605;-43
2022/03/21 09:28:44;;;;;;;19.77;14.83;;;14.10;43.50;;;;;;5020855;28;20459;-43
2022/03/21 09:31:13;;;;;;;18.83;13.03;;;14.20;42.90;;;;;;5019912;28;20535;-43
2022/03/21 09:34:00;;;;;;;15.60;12.73;;;14.30;42.50;;;;;;5019619;28;20428;-43
2022/03/21 09:36:26;;;;;;;21.57;14.47;;;14.30;42.00;;;;;;5003283;28;20508;-43
2022/03/21 09:38:53;;;;;;;19.60;13.77;;;14.40;41.80;;;;;;5019097;28;20486;-43
2022/03/21 09:41:29;;;;;;;18.23;14.80;;;14.50;41.50;;;;;;5016645;28;20441;-43
2022/03/21 09:43:58;;;;;;;19.70;14.20;;;14.60;41.60;;;;;;5034639;28;20908;-43
2022/03/21 09:46:24;;;;;;;18.30;14.93;;;14.80;42.30;;;;;;5020046;28;20570;-44
2022/03/21 09:48:54;;;;;;;20.67;14.90;;;15.00;41.80;;;;;;5019861;28;20466;-44
2022/03/21 09:51:27;;;;;;;21.20;14.37;;;15.00;40.10;;;;;;5018673;28;20996;-44
2022/03/21 09:53:59;;;;;;;19.00;14.40;;;15.00;40.30;;;;;;5023386;28;20959;-44
2022/03/21 09:56:27;;;;;;;17.53;14.83;;;15.20;40.80;;;;;;5019762;28;20481;-44
2022/03/21 09:58:59;;;;;;;20.50;15.30;;;15.40;41.20;;;;;;5020141;28;20471;-44
2022/03/21 10:01:32;;;;;;;18.63;15.40;;;15.50;41.10;;;;;;5019630;28;20452;-44
2022/03/21 10:04:00;;;;;;;16.07;12.80;;;15.70;41.20;;;;;;5012163;28;20452;-44
2022/03/21 10:06:40;;;;;;;18.07;14.30;;;16.00;40.60;;;;;;5018113;28;20804;-44
2022/03/21 10:09:17;;;;;;;18.90;13.80;;;16.10;39.70;;;;;;5017274;28;20474;-44
2022/03/21 10:11:55;;;;;;;17.97;15.67;;;16.10;38.80;;;;;;5019965;28;20458;-44
2022/03/21 10:14:32;;;;;;;22.23;16.10;;;16.30;38.70;;;;;;5021752;28;21043;-45
2022/03/21 10:17:03;;;;;;;20.10;14.90;;;16.30;38.20;;;;;;5019567;28;20925;-44
2022/03/21 10:19:45;;;;;;;19.07;14.60;;;16.50;38.60;;;;;;5021452;28;20671;-44
2022/03/21 10:22:15;;;;;;;18.23;15.80;;;16.70;39.30;;;;;;5017520;28;20467;-45
2022/03/21 10:24:46;;;;;;;15.57;13.87;;;16.90;38.40;;;;;;5019778;28;20482;-45
2022/03/21 10:27:39;;;;;;;21.40;16.47;;;17.00;38.00;;;;;;5016661;28;20472;-45
2022/03/21 10:30:08;;;;;;;18.53;16.13;;;17.20;37.40;;;;;;5019584;28;20464;-45
2022/03/21 10:32:57;;;;;;;18.20;14.50;;;17.40;37.20;;;;;;5017086;28;20448;-45
2022/03/21 10:35:31;;;;;;;17.37;15.07;;;17.70;37.40;;;;;;5019194;28;20896;-44
2022/03/21 10:38:00;;;;;;;19.93;14.40;;;18.10;37.50;;;;;;5017016;28;20467;-44
2022/03/21 10:40:34;;;;;;;19.07;15.63;;;18.40;36.50;;;;;;5018409;28;20542;-44
2022/03/21 10:43:05;;;;;;;21.60;15.63;;;18.60;36.10;;;;;;4991634;28;20876;-45
2022/03/21 10:45:41;;;;;;;16.13;14.30;;;18.80;35.30;;;;;;5018346;28;20588;-44
2022/03/21 10:48:26;;;;;;;17.83;13.93;;;19.10;35.50;;;;;;5016203;28;20569;-45
2022/03/21 10:50:55;;;;;;;17.20;14.63;;;19.30;35.40;;;;;;4997558;28;20514;-44
2022/03/21 10:53:32;;;;;;;21.97;15.07;;;19.40;35.10;;;;;;5016619;28;20468;-44
2022/03/21 10:56:01;;;;;;;18.10;15.20;;;19.60;35.20;;;;;;5022291;28;20472;-43
2022/03/21 10:58:34;;;;;;;19.70;15.47;;;19.80;34.50;;;;;;5017797;28;20945;-44
2022/03/21 11:01:16;;;;;;;20.37;15.50;;;19.80;34.10;;;;;;5015416;28;20470;-44
2022/03/21 11:03:46;;;;;;;15.73;14.17;;;19.80;34.80;;;;;;5018844;28;20526;-44
2022/03/21 11:06:14;;;;;;;17.70;14.80;;;19.90;35.90;;;;;;5000738;28;20495;-44
2022/03/21 11:08:51;;;;;;;20.13;15.93;;;19.90;34.70;;;;;;5050885;28;20549;-44
2022/03/21 11:11:19;;;;;;;20.87;16.73;;;19.90;34.90;;;;;;5032091;28;20474;-44
2022/03/21 11:13:47;;;;;;;18.60;14.20;;;20.00;34.00;;;;;;5031962;28;20461;-44
2022/03/21 11:16:18;;;;;;;18.20;15.27;;;20.00;34.10;;;;;;5036495;28;20470;-44
2022/03/21 11:18:51;;;;;;;21.77;16.83;;;20.10;34.20;;;;;;5035058;28;20522;-43
2022/03/21 11:21:19;;;;;;;18.53;13.97;;;20.20;34.20;;;;;;5034521;28;20469;-44
2022/03/21 11:23:47;;;;;;;18.33;15.37;;;20.30;34.60;;;;;;5031316;28;20462;-44
2022/03/21 11:26:47;;;;;;;17.70;14.13;;;20.30;34.30;;;;;;5032947;28;20496;-44
2022/03/21 11:29:23;;;;;;;19.23;15.87;;;20.10;34.40;;;;;;5031715;28;20552;-44
2022/03/21 11:32:31;;;;;;;19.37;15.27;;;20.10;35.60;;;;;;5031340;28;20936;-44
2022/03/21 11:35:17;;;;;;;17.20;14.67;;;20.10;34.80;;;;;;5034168;28;20470;-44
2022/03/21 11:37:44;;;;;;;18.03;14.70;;;20.10;34.70;;;;;;5037602;28;20479;-44
2022/03/21 11:40:33;;;;;;;17.53;14.43;;;20.00;34.70;;;;;;5036013;28;20541;-44
2022/03/21 11:43:16;;;;;;;20.73;15.03;;;20.00;34.90;;;;;;5030112;28;20455;-44
2022/03/21 11:45:45;;;;;;;18.00;14.73;;;20.00;34.80;;;;;;5049172;28;20738;-44
2022/03/21 11:48:17;;;;;;;23.50;15.47;;;19.90;35.40;;;;;;5032159;28;20608;-45
2022/03/21 11:51:07;;;;;;;19.70;14.13;;;19.80;35.00;;;;;;5037161;28;20944;-44
2022/03/21 11:53:43;;;;;;;22.27;15.70;;;19.60;35.40;;;;;;5029615;28;20559;-45
2022/03/21 11:56:37;;;;;;;21.30;15.00;;;19.50;35.60;;;;;;5034023;28;20457;-45
2022/03/21 11:59:04;;;;;;;20.63;14.40;;;19.60;36.30;;;;;;5045660;28;20466;-45
2022/03/21 12:01:31;;;;;;;17.70;14.87;;;19.60;36.90;;;;;;5032807;28;20974;-45
2022/03/21 12:04:24;;;;;;;18.33;15.43;;;19.70;36.80;;;;;;5034977;28;20457;-44
2022/03/21 12:07:14;;;;;;;21.20;14.87;;;19.70;35.70;;;;;;5033692;28;20877;-44
2022/03/21 12:09:45;;;;;;;20.50;15.93;;;19.70;35.60;;;;;;5030018;28;20883;-44
2022/03/21 12:12:35;;;;;;;17.50;15.67;;;19.60;36.40;;;;;;5033063;28;20468;-44
2022/03/21 12:15:17;;;;;;;22.00;15.47;;;19.60;35.80;;;;;;5033660;28;20453;-44
2022/03/21 12:17:51;;;;;;;21.73;16.80;;;19.40;36.60;;;;;;5029150;28;20467;-44
2022/03/21 12:20:19;;;;;;;18.57;14.37;;;19.40;36.70;;;;;;5022399;28;20467;-44
2022/03/21 12:23:15;;;;;;;18.67;15.67;;;19.30;36.70;;;;;;5022001;28;20465;-44
2022/03/21 12:25:45;;;;;;;22.33;17.40;;;19.20;36.70;;;;;;5018301;28;20476;-44
2022/03/21 12:31:28;;;;;;;19.87;14.70;;;19.10;37.30;;;;;;5021520;28;20560;-44
2022/03/21 12:34:34;;;;;;;24.00;16.17;;;19.10;37.30;;;;;;5019506;28;20511;-44
2022/03/21 12:37:31;;;;;;;19.53;15.13;;;19.20;37.50;;;;;;5021663;28;20471;-44
2022/03/21 12:40:00;;;;;;;19.73;15.47;;;19.20;38.10;;;;;;5019152;28;20469;-44
2022/03/21 12:42:28;;;;;;;26.00;16.27;;;19.30;38.90;;;;;;5017957;28;20462;-44
2022/03/21 12:44:55;;;;;;;20.57;14.90;;;19.30;38.30;;;;;;5016155;28;20465;-45
2022/03/21 12:47:23;;;;;;;20.50;14.40;;;19.20;37.90;;;;;;5020431;28;20511;-45
2022/03/21 12:49:51;;;;;;;16.37;13.23;;;19.20;38.20;;;;;;5022792;28;20468;-45
2022/03/21 12:52:26;;;;;;;18.57;14.73;;;19.20;37.90;;;;;;5019760;28;20471;-45
2022/03/21 12:54:54;;;;;;;21.37;15.00;;;19.10;37.90;;;;;;5019493;28;20472;-44
2022/03/21 12:57:21;;;;;;;15.67;13.10;;;19.10;38.00;;;;;;5017196;28;20513;-44
2022/03/21 12:59:48;;;;;;;17.67;13.93;;;19.10;39.30;;;;;;5018234;28;20568;-44
2022/03/21 13:02:25;;;;;;;17.57;13.00;;;19.10;38.90;;;;;;5016934;28;20464;-44
2022/03/21 13:10:32;;;;;;;17.80;14.30;;;19.20;38.90;;;;;;5015777;28;20527;-44
2022/03/21 13:13:04;;;;;;;17.73;12.60;;;19.20;38.50;;;;;;5019220;28;20517;-45